createdAt,value
2018-07-05T00:00:26.078Z,4.00
2018-07-05T00:01:26.101Z,4.00
2018-07-05T00:02:26.123Z,4.00
2018-07-05T00:03:26.154Z,4.00
2018-07-05T00:04:26.174Z,4.00
2018-07-05T00:05:26.201Z,4.00
2018-07-05T00:06:26.223Z,4.00
2018-07-05T00:07:26.247Z,4.00
2018-07-05T00:08:26.273Z,4.00
2018-07-05T00:09:26.295Z,4.00
2018-07-05T00:10:26.319Z,4.00
2018-07-05T00:11:26.346Z,4.00
2018-07-05T00:12:26.368Z,4.00
2018-07-05T00:13:26.393Z,4.00
2018-07-05T00:14:26.419Z,4.00
2018-07-05T00:15:26.440Z,4.00
2018-07-05T00:16:26.566Z,4.00
2018-07-05T00:17:26.493Z,4.00
2018-07-05T00:18:26.519Z,4.00
2018-07-05T00:19:26.539Z,4.00
2018-07-05T00:20:26.562Z,4.00
2018-07-05T00:21:26.587Z,4.00
2018-07-05T00:22:26.613Z,4.00
2018-07-05T00:23:26.637Z,4.00
2018-07-05T00:24:26.658Z,4.00
2018-07-05T00:25:26.685Z,4.00
2018-07-05T00:26:26.706Z,4.00
2018-07-05T00:27:26.731Z,4.00
2018-07-05T00:28:26.755Z,4.00
2018-07-05T00:29:26.783Z,4.00
2018-07-05T00:30:26.804Z,4.00
2018-07-05T00:31:26.827Z,4.00
2018-07-05T00:32:26.852Z,4.00
2018-07-05T00:33:26.882Z,4.00
2018-07-05T00:34:26.899Z,4.00
2018-07-05T00:35:26.926Z,4.00
2018-07-05T00:36:26.947Z,4.00
2018-07-05T00:37:26.971Z,4.00
2018-07-05T00:38:26.994Z,4.00
2018-07-05T00:39:27.021Z,4.00
2018-07-05T00:40:27.047Z,4.00
2018-07-05T00:41:27.072Z,4.00
2018-07-05T00:42:27.094Z,4.00
2018-07-05T00:43:27.119Z,4.00
2018-07-05T00:44:27.143Z,4.00
2018-07-05T00:45:27.169Z,4.00
2018-07-05T00:46:27.190Z,4.00
2018-07-05T00:47:27.213Z,4.00
2018-07-05T00:48:27.236Z,4.00
2018-07-05T00:49:27.263Z,4.00
2018-07-05T00:50:27.283Z,4.00
2018-07-05T00:51:27.311Z,4.00
2018-07-05T00:52:27.335Z,4.00
2018-07-05T00:53:27.357Z,4.00
2018-07-05T00:54:27.382Z,4.00
2018-07-05T00:55:27.407Z,4.00
2018-07-05T00:56:27.431Z,4.00
2018-07-05T00:57:27.452Z,4.00
2018-07-05T00:58:27.475Z,4.00
2018-07-05T00:59:27.503Z,4.00
2018-07-05T01:00:27.527Z,4.00
2018-07-05T01:01:27.547Z,4.00
2018-07-05T01:02:27.571Z,4.00
2018-07-05T01:03:27.601Z,4.00
2018-07-05T01:04:27.622Z,4.00
2018-07-05T01:05:27.645Z,4.00
2018-07-05T01:06:27.667Z,4.00
2018-07-05T01:07:27.693Z,4.00
2018-07-05T01:08:27.715Z,4.00
2018-07-05T01:09:27.742Z,4.00
2018-07-05T01:10:27.763Z,4.00
2018-07-05T01:11:27.786Z,4.00
2018-07-05T01:12:27.813Z,4.00
2018-07-05T01:13:27.837Z,4.00
2018-07-05T01:14:27.857Z,4.00
2018-07-05T01:15:27.885Z,4.00
2018-07-05T01:16:27.905Z,4.00
2018-07-05T01:17:27.931Z,4.00
2018-07-05T01:18:27.952Z,4.00
2018-07-05T01:19:27.976Z,4.00
2018-07-05T01:20:28.002Z,4.00
2018-07-05T01:21:28.025Z,4.00
2018-07-05T01:22:28.051Z,4.00
2018-07-05T01:23:28.071Z,4.00
2018-07-05T01:24:28.097Z,4.00
2018-07-05T01:25:28.118Z,4.00
2018-07-05T01:26:28.144Z,4.00
2018-07-05T01:27:28.167Z,4.00
2018-07-05T01:28:28.191Z,4.00
2018-07-05T01:29:28.213Z,4.00
2018-07-05T01:30:28.237Z,4.00
2018-07-05T01:31:28.259Z,4.00
2018-07-05T01:32:28.284Z,4.00
2018-07-05T01:33:28.306Z,4.00
2018-07-05T01:34:28.331Z,4.00
2018-07-05T01:35:28.352Z,4.00
2018-07-05T01:36:28.377Z,4.00
2018-07-05T01:37:28.402Z,4.00
2018-07-05T01:38:28.465Z,4.00
2018-07-05T01:39:28.447Z,4.00
2018-07-05T01:40:28.469Z,4.00
2018-07-05T01:41:28.497Z,4.00
2018-07-05T01:42:28.518Z,4.00
2018-07-05T01:43:28.542Z,4.00
2018-07-05T01:44:28.564Z,4.00
2018-07-05T01:45:28.590Z,4.00
2018-07-05T01:46:28.610Z,4.00
2018-07-05T01:47:28.634Z,4.00
2018-07-05T01:48:28.660Z,4.00
2018-07-05T01:49:28.683Z,4.00
2018-07-05T01:50:28.704Z,4.00
2018-07-05T01:51:28.726Z,4.00
2018-07-05T01:52:28.750Z,4.00
2018-07-05T01:53:28.776Z,4.00
2018-07-05T01:54:28.799Z,4.00
2018-07-05T01:55:28.820Z,4.00
2018-07-05T01:56:28.848Z,4.00
2018-07-05T01:57:28.869Z,4.00
2018-07-05T01:58:28.892Z,4.00
2018-07-05T01:59:28.913Z,4.00
2018-07-05T02:00:28.937Z,4.00
2018-07-05T02:01:28.964Z,4.00
2018-07-05T02:02:28.988Z,4.00
2018-07-05T02:03:29.010Z,4.00
2018-07-05T02:04:29.031Z,4.00
2018-07-05T02:05:29.056Z,4.00
2018-07-05T02:06:29.075Z,4.00
2018-07-05T02:07:29.099Z,4.00
2018-07-05T02:08:29.123Z,4.00
2018-07-05T02:09:29.149Z,4.00
2018-07-05T02:10:29.168Z,4.00
2018-07-05T02:11:29.192Z,4.00
2018-07-05T02:12:29.217Z,4.00
2018-07-05T02:13:29.239Z,4.00
2018-07-05T02:14:29.314Z,4.00
2018-07-05T02:15:29.287Z,4.00
2018-07-05T02:16:29.311Z,4.00
2018-07-05T02:17:29.331Z,4.00
2018-07-05T02:18:29.367Z,4.00
2018-07-05T02:19:29.380Z,4.00
2018-07-05T02:20:29.403Z,4.00
2018-07-05T02:21:29.423Z,4.00
2018-07-05T02:22:29.445Z,4.00
2018-07-05T02:23:29.469Z,4.00
2018-07-05T02:24:29.495Z,4.00
2018-07-05T02:25:29.518Z,4.00
2018-07-05T02:26:29.539Z,8.00
2018-07-05T02:27:29.564Z,8.00
2018-07-05T02:28:29.583Z,8.00
2018-07-05T02:29:29.609Z,8.00
2018-07-05T02:30:29.631Z,4.00
2018-07-05T02:31:29.657Z,4.00
2018-07-05T02:32:29.680Z,4.00
2018-07-05T02:33:29.702Z,4.00
2018-07-05T02:34:29.723Z,8.00
2018-07-05T02:35:29.745Z,8.00
2018-07-05T02:36:29.771Z,8.00
2018-07-05T02:37:29.793Z,4.00
2018-07-05T02:38:29.816Z,8.00
2018-07-05T02:39:29.840Z,8.00
2018-07-05T02:40:29.863Z,8.00
2018-07-05T02:41:29.883Z,8.00
2018-07-05T02:42:29.907Z,8.00
2018-07-05T02:43:29.929Z,12.00
2018-07-05T02:44:29.956Z,8.00
2018-07-05T02:45:29.977Z,12.00
2018-07-05T02:46:29.999Z,8.00
2018-07-05T02:47:30.022Z,12.00
2018-07-05T02:48:30.049Z,12.00
2018-07-05T02:49:30.069Z,12.00
2018-07-05T02:50:30.094Z,16.00
2018-07-05T02:51:30.114Z,16.00
2018-07-05T02:52:30.135Z,16.00
2018-07-05T02:53:30.159Z,20.00
2018-07-05T02:54:30.181Z,16.00
2018-07-05T02:55:30.202Z,16.00
2018-07-05T02:56:30.226Z,20.00
2018-07-05T02:57:30.251Z,24.00
2018-07-05T02:58:30.272Z,24.00
2018-07-05T02:59:30.298Z,28.00
2018-07-05T03:00:30.321Z,28.00
2018-07-05T03:01:30.343Z,36.00
2018-07-05T03:02:30.364Z,36.00
2018-07-05T03:03:30.392Z,40.00
2018-07-05T03:04:30.412Z,40.00
2018-07-05T03:05:30.435Z,48.00
2018-07-05T03:06:30.455Z,52.00
2018-07-05T03:07:30.481Z,56.00
2018-07-05T03:08:30.503Z,64.00
2018-07-05T03:09:30.524Z,68.00
2018-07-05T03:10:30.548Z,72.00
2018-07-05T03:11:30.569Z,80.00
2018-07-05T03:12:30.592Z,84.00
2018-07-05T03:13:30.617Z,88.00
2018-07-05T03:14:30.639Z,96.00
2018-07-05T03:15:30.660Z,104.00
2018-07-05T03:16:30.739Z,112.00
2018-07-05T03:17:30.706Z,116.00
2018-07-05T03:18:31.078Z,128.00
2018-07-05T03:19:30.751Z,140.00
2018-07-05T03:20:30.776Z,144.00
2018-07-05T03:21:30.799Z,152.00
2018-07-05T03:22:30.821Z,160.00
2018-07-05T03:23:30.841Z,172.00
2018-07-05T03:24:30.867Z,184.00
2018-07-05T03:25:30.892Z,192.00
2018-07-05T03:26:30.912Z,208.00
2018-07-05T03:27:30.933Z,220.00
2018-07-05T03:28:30.955Z,232.00
2018-07-05T03:29:30.980Z,244.00
2018-07-05T03:30:31.000Z,260.00
2018-07-05T03:31:31.073Z,272.00
2018-07-05T03:32:31.148Z,284.00
2018-07-05T03:33:31.072Z,300.00
2018-07-05T03:34:31.090Z,316.00
2018-07-05T03:35:31.113Z,336.00
2018-07-05T03:36:31.137Z,352.00
2018-07-05T03:37:31.159Z,364.00
2018-07-05T03:38:31.181Z,384.00
2018-07-05T03:39:31.207Z,400.00
2018-07-05T03:40:31.228Z,416.00
2018-07-05T03:41:31.252Z,432.00
2018-07-05T03:42:31.276Z,448.00
2018-07-05T03:43:31.299Z,464.00
2018-07-05T03:44:31.320Z,488.00
2018-07-05T03:45:31.341Z,508.00
2018-07-05T03:46:31.367Z,532.00
2018-07-05T03:47:31.386Z,556.00
2018-07-05T03:48:31.413Z,576.00
2018-07-05T03:49:31.433Z,592.00
2018-07-05T03:50:31.459Z,612.00
2018-07-05T03:51:31.514Z,628.00
2018-07-05T03:52:31.502Z,652.00
2018-07-05T03:53:31.527Z,672.00
2018-07-05T03:54:31.546Z,696.00
2018-07-05T03:55:31.573Z,720.00
2018-07-05T03:56:31.596Z,752.00
2018-07-05T03:57:31.618Z,784.00
2018-07-05T03:58:31.639Z,816.00
2018-07-05T03:59:31.663Z,848.00
2018-07-05T04:00:31.686Z,876.00
2018-07-05T04:01:31.708Z,904.00
2018-07-05T04:02:31.775Z,936.00
2018-07-05T04:03:31.754Z,960.00
2018-07-05T04:04:31.831Z,988.00
2018-07-05T04:05:31.799Z,1008.00
2018-07-05T04:06:31.819Z,1044.00
2018-07-05T04:07:31.851Z,1060.00
2018-07-05T04:08:31.867Z,1096.00
2018-07-05T04:09:31.891Z,1140.00
2018-07-05T04:10:31.914Z,1180.00
2018-07-05T04:11:31.936Z,1216.00
2018-07-05T04:12:31.956Z,1248.00
2018-07-05T04:13:31.980Z,1276.00
2018-07-05T04:14:32.004Z,1300.00
2018-07-05T04:15:32.025Z,1340.00
2018-07-05T04:16:32.051Z,1376.00
2018-07-05T04:17:32.072Z,1416.00
2018-07-05T04:18:32.096Z,1460.00
2018-07-05T04:19:32.115Z,1504.00
2018-07-05T04:20:32.139Z,1552.00
2018-07-05T04:21:32.165Z,1596.00
2018-07-05T04:22:32.187Z,1644.00
2018-07-05T04:23:32.210Z,1688.00
2018-07-05T04:24:32.229Z,1732.00
2018-07-05T04:25:32.257Z,1776.00
2018-07-05T04:26:32.277Z,1812.00
2018-07-05T04:27:32.299Z,1844.00
2018-07-05T04:28:32.323Z,1872.00
2018-07-05T04:29:32.347Z,1896.00
2018-07-05T04:30:32.367Z,1912.00
2018-07-05T04:31:32.390Z,1932.00
2018-07-05T04:32:32.415Z,1952.00
2018-07-05T04:33:32.436Z,1980.00
2018-07-05T04:34:32.462Z,2004.00
2018-07-05T04:35:32.485Z,2036.00
2018-07-05T04:36:32.505Z,2060.00
2018-07-05T04:37:32.530Z,2080.00
2018-07-05T04:38:32.550Z,2104.00
2018-07-05T04:39:32.576Z,2124.00
2018-07-05T04:40:32.599Z,2152.00
2018-07-05T04:41:32.622Z,2180.00
2018-07-05T04:42:32.692Z,2212.00
2018-07-05T04:43:32.666Z,2244.00
2018-07-05T04:44:32.691Z,2292.00
2018-07-05T04:45:32.715Z,2360.00
2018-07-05T04:46:32.737Z,2420.00
2018-07-05T04:47:32.762Z,2452.00
2018-07-05T04:48:32.783Z,2488.00
2018-07-05T04:49:32.805Z,2520.00
2018-07-05T04:50:32.829Z,2540.00
2018-07-05T04:51:32.853Z,2552.00
2018-07-05T04:52:32.873Z,2564.00
2018-07-05T04:53:32.896Z,2588.00
2018-07-05T04:54:32.921Z,2612.00
2018-07-05T04:55:33.030Z,2636.00
2018-07-05T04:56:32.970Z,2668.00
2018-07-05T04:57:32.989Z,2696.00
2018-07-05T04:58:33.014Z,2728.00
2018-07-05T04:59:33.036Z,2748.00
2018-07-05T05:00:33.062Z,2756.00
2018-07-05T05:01:33.083Z,2756.00
2018-07-05T05:02:33.108Z,2728.00
2018-07-05T05:03:33.134Z,2704.00
2018-07-05T05:04:33.154Z,2660.00
2018-07-05T05:05:33.178Z,2632.00
2018-07-05T05:06:33.198Z,2588.00
2018-07-05T05:07:33.222Z,2560.00
2018-07-05T05:08:33.248Z,2540.00
2018-07-05T05:09:33.268Z,2540.00
2018-07-05T05:10:33.293Z,2560.00
2018-07-05T05:11:33.318Z,2584.00
2018-07-05T05:12:33.338Z,2596.00
2018-07-05T05:13:33.366Z,2600.00
2018-07-05T05:14:33.384Z,2568.00
2018-07-05T05:15:33.409Z,2644.00
2018-07-05T05:16:33.433Z,2692.00
2018-07-05T05:17:33.458Z,2680.00
2018-07-05T05:18:33.477Z,2816.00
2018-07-05T05:19:33.509Z,2932.00
2018-07-05T05:20:33.527Z,3104.00
2018-07-05T05:21:33.552Z,3160.00
2018-07-05T05:22:33.580Z,3168.00
2018-07-05T05:23:33.598Z,3132.00
2018-07-05T05:24:33.619Z,3144.00
2018-07-05T05:25:33.643Z,3100.00
2018-07-05T05:26:33.665Z,3060.00
2018-07-05T05:27:33.691Z,3044.00
2018-07-05T05:28:33.714Z,2964.00
2018-07-05T05:29:33.736Z,2948.00
2018-07-05T05:30:33.762Z,2896.00
2018-07-05T05:31:33.788Z,2868.00
2018-07-05T05:32:33.810Z,2784.00
2018-07-05T05:33:33.833Z,2764.00
2018-07-05T05:34:33.856Z,2644.00
2018-07-05T05:35:33.876Z,2584.00
2018-07-05T05:36:33.903Z,2564.00
2018-07-05T05:37:33.927Z,2488.00
2018-07-05T05:38:33.948Z,2464.00
2018-07-05T05:39:33.972Z,2492.00
2018-07-05T05:40:33.993Z,2532.00
2018-07-05T05:41:34.018Z,2596.00
2018-07-05T05:42:34.042Z,2840.00
2018-07-05T05:43:34.064Z,2756.00
2018-07-05T05:44:34.088Z,2868.00
2018-07-05T05:45:34.111Z,2932.00
2018-07-05T05:46:34.135Z,3088.00
2018-07-05T05:47:34.163Z,2964.00
2018-07-05T05:48:34.185Z,3108.00
2018-07-05T05:49:34.209Z,3116.00
2018-07-05T05:50:34.231Z,3212.00
2018-07-05T05:51:34.253Z,3216.00
2018-07-05T05:52:34.276Z,3636.00
2018-07-05T05:53:34.304Z,3660.00
2018-07-05T05:54:34.323Z,3536.00
2018-07-05T05:55:34.368Z,3376.00
2018-07-05T05:56:34.371Z,3904.00
2018-07-05T05:57:34.398Z,3812.00
2018-07-05T05:58:34.418Z,3968.00
2018-07-05T05:59:34.441Z,3980.00
2018-07-05T06:00:34.469Z,4000.00
2018-07-05T06:01:34.494Z,4040.00
2018-07-05T06:02:34.516Z,4084.00
2018-07-05T06:03:34.538Z,4100.00
2018-07-05T06:04:34.563Z,4168.00
2018-07-05T06:05:34.590Z,4184.00
2018-07-05T06:06:34.610Z,4208.00
2018-07-05T06:07:34.644Z,4292.00
2018-07-05T06:08:34.663Z,4240.00
2018-07-05T06:09:34.688Z,4268.00
2018-07-05T06:10:34.707Z,4332.00
2018-07-05T06:11:34.734Z,4364.00
2018-07-05T06:12:34.759Z,4380.00
2018-07-05T06:13:34.783Z,4412.00
2018-07-05T06:14:34.809Z,4456.00
2018-07-05T06:15:34.837Z,4468.00
2018-07-05T06:16:34.866Z,4512.00
2018-07-05T06:17:34.884Z,4596.00
2018-07-05T06:18:34.942Z,4612.00
2018-07-05T06:19:34.932Z,4652.00
2018-07-05T06:20:34.960Z,4664.00
2018-07-05T06:21:34.986Z,4716.00
2018-07-05T06:22:35.008Z,4748.00
2018-07-05T06:23:35.035Z,4764.00
2018-07-05T06:24:35.058Z,4832.00
2018-07-05T06:25:35.127Z,4892.00
2018-07-05T06:26:35.112Z,4960.00
2018-07-05T06:27:35.138Z,5036.00
2018-07-05T06:28:35.164Z,5088.00
2018-07-05T06:29:35.191Z,5108.00
2018-07-05T06:30:35.213Z,5140.00
2018-07-05T06:31:35.239Z,5148.00
2018-07-05T06:32:35.266Z,5160.00
2018-07-05T06:33:35.289Z,5196.00
2018-07-05T06:34:35.317Z,5208.00
2018-07-05T06:35:35.343Z,5232.00
2018-07-05T06:36:35.368Z,5280.00
2018-07-05T06:37:35.394Z,5316.00
2018-07-05T06:38:35.421Z,5376.00
2018-07-05T06:39:35.480Z,5416.00
2018-07-05T06:40:35.473Z,5456.00
2018-07-05T06:41:35.500Z,5456.00
2018-07-05T06:42:35.527Z,5436.00
2018-07-05T06:43:35.553Z,5460.00
2018-07-05T06:44:35.578Z,5468.00
2018-07-05T06:45:35.607Z,5452.00
2018-07-05T06:46:35.630Z,5432.00
2018-07-05T06:47:35.660Z,5444.00
2018-07-05T06:48:35.682Z,5456.00
2018-07-05T06:49:35.711Z,5484.00
2018-07-05T06:50:35.735Z,5516.00
2018-07-05T06:51:35.765Z,5572.00
2018-07-05T06:52:35.788Z,5640.00
2018-07-05T06:53:35.818Z,5672.00
2018-07-05T06:54:35.843Z,5688.00
2018-07-05T06:55:35.867Z,5688.00
2018-07-05T06:56:35.896Z,5700.00
2018-07-05T06:57:35.921Z,5708.00
2018-07-05T06:58:35.947Z,5720.00
2018-07-05T06:59:35.975Z,5832.00
2018-07-05T07:00:36.003Z,5704.00
2018-07-05T07:01:36.028Z,5704.00
2018-07-05T07:02:36.057Z,5660.00
2018-07-05T07:03:36.084Z,5720.00
2018-07-05T07:04:36.107Z,5860.00
2018-07-05T07:05:36.136Z,5868.00
2018-07-05T07:06:36.163Z,5884.00
2018-07-05T07:07:36.192Z,5936.00
2018-07-05T07:08:36.215Z,6064.00
2018-07-05T07:09:36.244Z,6040.00
2018-07-05T07:10:36.270Z,6064.00
2018-07-05T07:11:36.298Z,6052.00
2018-07-05T07:12:36.326Z,6072.00
2018-07-05T07:13:36.353Z,6076.00
2018-07-05T07:14:36.377Z,6084.00
2018-07-05T07:15:36.405Z,6096.00
2018-07-05T07:16:36.436Z,6136.00
2018-07-05T07:17:36.462Z,6184.00
2018-07-05T07:18:36.486Z,6196.00
2018-07-05T07:19:36.514Z,6192.00
2018-07-05T07:20:36.542Z,6216.00
2018-07-05T07:21:36.652Z,6228.00
2018-07-05T07:22:36.599Z,6196.00
2018-07-05T07:23:36.627Z,6064.00
2018-07-05T07:24:36.655Z,6080.00
2018-07-05T07:25:36.680Z,6080.00
2018-07-05T07:26:36.712Z,6092.00
2018-07-05T07:27:37.089Z,6152.00
2018-07-05T07:28:36.766Z,6180.00
2018-07-05T07:29:36.790Z,6328.00
2018-07-05T07:30:36.820Z,6436.00
2018-07-05T07:31:36.907Z,6296.00
2018-07-05T07:32:36.877Z,6184.00
2018-07-05T07:33:36.902Z,5996.00
2018-07-05T07:34:36.932Z,5804.00
2018-07-05T07:35:36.959Z,5740.00
2018-07-05T07:36:36.990Z,5684.00
2018-07-05T07:37:37.110Z,5672.00
2018-07-05T07:38:37.051Z,5444.00
2018-07-05T07:39:37.070Z,5008.00
2018-07-05T07:40:37.099Z,4848.00
2018-07-05T07:41:37.129Z,5588.00
2018-07-05T07:42:37.154Z,5260.00
2018-07-05T07:43:37.184Z,5484.00
2018-07-05T07:44:37.210Z,5548.00
2018-07-05T07:45:37.306Z,5712.00
2018-07-05T07:46:37.269Z,5824.00
2018-07-05T07:47:37.295Z,5348.00
2018-07-05T07:48:37.324Z,5372.00
2018-07-05T07:49:37.371Z,5484.00
2018-07-05T07:50:37.379Z,5408.00
2018-07-05T07:51:37.404Z,5372.00
2018-07-05T07:52:37.520Z,4852.00
2018-07-05T07:53:37.462Z,5068.00
2018-07-05T07:54:37.486Z,4988.00
2018-07-05T07:55:37.515Z,5016.00
2018-07-05T07:56:37.546Z,5216.00
2018-07-05T07:57:37.573Z,5068.00
2018-07-05T07:58:37.598Z,4684.00
2018-07-05T07:59:37.626Z,5208.00
2018-07-05T08:00:37.651Z,5160.00
2018-07-05T08:01:37.678Z,5328.00
2018-07-05T08:02:37.705Z,5340.00
2018-07-05T08:03:37.736Z,5396.00
2018-07-05T08:04:37.763Z,5488.00
2018-07-05T08:05:37.788Z,5508.00
2018-07-05T08:06:37.818Z,5544.00
2018-07-05T08:07:37.843Z,5548.00
2018-07-05T08:08:37.870Z,5460.00
2018-07-05T08:09:37.899Z,5452.00
2018-07-05T08:10:37.926Z,5444.00
2018-07-05T08:11:37.951Z,5544.00
2018-07-05T08:12:37.981Z,5652.00
2018-07-05T08:13:38.011Z,5704.00
2018-07-05T08:14:38.031Z,5648.00
2018-07-05T08:15:38.061Z,5536.00
2018-07-05T08:16:38.089Z,5388.00
2018-07-05T08:17:38.116Z,4852.00
2018-07-05T08:18:38.142Z,4836.00
2018-07-05T08:19:38.167Z,4812.00
2018-07-05T08:20:38.195Z,4596.00
2018-07-05T08:21:38.221Z,4128.00
2018-07-05T08:22:38.248Z,3812.00
2018-07-05T08:23:38.277Z,3844.00
2018-07-05T08:24:38.304Z,4268.00
2018-07-05T08:25:38.328Z,4752.00
2018-07-05T08:26:38.355Z,4756.00
2018-07-05T08:27:38.383Z,4952.00
2018-07-05T08:28:38.408Z,4916.00
2018-07-05T08:29:38.435Z,5244.00
2018-07-05T08:30:38.467Z,5388.00
2018-07-05T08:31:38.490Z,5232.00
2018-07-05T08:32:38.515Z,4996.00
2018-07-05T08:33:38.544Z,5144.00
2018-07-05T08:34:38.567Z,5016.00
2018-07-05T08:35:38.594Z,5556.00
2018-07-05T08:36:38.622Z,5704.00
2018-07-05T08:37:38.652Z,5924.00
2018-07-05T08:38:38.677Z,6104.00
2018-07-05T08:39:38.705Z,6148.00
2018-07-05T08:40:38.731Z,6104.00
2018-07-05T08:41:38.758Z,6160.00
2018-07-05T08:42:38.783Z,6172.00
2018-07-05T08:43:38.811Z,6212.00
2018-07-05T08:44:38.835Z,6000.00
2018-07-05T08:45:38.862Z,5884.00
2018-07-05T08:46:38.892Z,5888.00
2018-07-05T08:47:38.915Z,6044.00
2018-07-05T08:48:38.946Z,6168.00
2018-07-05T08:49:38.969Z,6256.00
2018-07-05T08:50:38.997Z,6296.00
2018-07-05T08:51:39.028Z,6456.00
2018-07-05T08:52:39.051Z,6488.00
2018-07-05T08:53:39.080Z,6316.00
2018-07-05T08:54:39.106Z,6564.00
2018-07-05T08:55:39.131Z,6880.00
2018-07-05T08:56:39.161Z,7032.00
2018-07-05T08:57:39.186Z,7100.00
2018-07-05T08:58:39.212Z,7176.00
2018-07-05T08:59:39.305Z,7232.00
2018-07-05T09:00:39.269Z,7280.00
2018-07-05T09:01:39.293Z,7120.00
2018-07-05T09:02:39.322Z,6968.00
2018-07-05T09:03:39.346Z,6584.00
2018-07-05T09:04:39.377Z,6628.00
2018-07-05T09:05:39.404Z,6680.00
2018-07-05T09:06:39.428Z,6580.00
2018-07-05T09:07:39.455Z,6420.00
2018-07-05T09:08:39.482Z,6592.00
2018-07-05T09:09:39.510Z,6364.00
2018-07-05T09:10:39.538Z,6288.00
2018-07-05T09:11:39.567Z,6332.00
2018-07-05T09:12:39.595Z,6136.00
2018-07-05T09:13:39.619Z,6336.00
2018-07-05T09:14:39.645Z,6464.00
2018-07-05T09:15:39.674Z,6300.00
2018-07-05T09:16:39.701Z,6208.00
2018-07-05T09:17:39.824Z,6340.00
2018-07-05T09:18:39.760Z,6412.00
2018-07-05T09:19:39.789Z,6280.00
2018-07-05T09:20:39.810Z,6400.00
2018-07-05T09:21:39.841Z,6348.00
2018-07-05T09:22:40.115Z,6340.00
2018-07-05T09:23:39.900Z,6296.00
2018-07-05T09:24:39.921Z,6368.00
2018-07-05T09:25:39.951Z,6308.00
2018-07-05T09:26:39.985Z,6368.00
2018-07-05T09:27:40.004Z,6380.00
2018-07-05T09:28:40.033Z,6352.00
2018-07-05T09:29:40.061Z,6312.00
2018-07-05T09:30:40.088Z,6160.00
2018-07-05T09:31:40.115Z,6072.00
2018-07-05T09:32:40.143Z,6004.00
2018-07-05T09:33:40.168Z,6056.00
2018-07-05T09:34:40.234Z,5992.00
2018-07-05T09:35:40.223Z,5952.00
2018-07-05T09:36:40.250Z,5992.00
2018-07-05T09:37:40.378Z,6040.00
2018-07-05T09:38:40.308Z,6032.00
2018-07-05T09:39:40.334Z,5948.00
2018-07-05T09:40:40.361Z,5852.00
2018-07-05T09:41:40.388Z,5940.00
2018-07-05T09:42:40.417Z,5976.00
2018-07-05T09:43:40.445Z,6052.00
2018-07-05T09:44:40.469Z,6196.00
2018-07-05T09:45:40.500Z,6132.00
2018-07-05T09:46:40.524Z,6056.00
2018-07-05T09:47:40.555Z,6140.00
2018-07-05T09:48:40.582Z,6184.00
2018-07-05T09:49:40.611Z,6228.00
2018-07-05T09:50:40.634Z,6176.00
2018-07-05T09:51:40.665Z,6236.00
2018-07-05T09:52:40.696Z,6228.00
2018-07-05T09:53:40.717Z,6144.00
2018-07-05T09:54:40.747Z,6288.00
2018-07-05T09:55:40.774Z,6128.00
2018-07-05T09:56:40.800Z,6148.00
2018-07-05T09:57:40.832Z,5928.00
2018-07-05T09:58:40.857Z,5856.00
2018-07-05T09:59:40.882Z,5568.00
2018-07-05T10:00:40.912Z,4780.00
2018-07-05T10:01:40.937Z,5616.00
2018-07-05T10:02:40.966Z,6032.00
2018-07-05T10:03:41.090Z,5992.00
2018-07-05T10:04:41.028Z,5976.00
2018-07-05T10:05:41.082Z,6136.00
2018-07-05T10:06:41.076Z,6036.00
2018-07-05T10:07:41.106Z,6224.00
2018-07-05T10:08:41.133Z,6212.00
2018-07-05T10:09:41.160Z,6100.00
2018-07-05T10:10:41.187Z,6080.00
2018-07-05T10:11:41.216Z,6156.00
2018-07-05T10:12:41.244Z,6224.00
2018-07-05T10:13:41.605Z,6232.00
2018-07-05T10:14:41.471Z,6284.00
2018-07-05T10:15:41.329Z,6220.00
2018-07-05T10:16:41.367Z,6248.00
2018-07-05T10:17:41.379Z,6208.00
2018-07-05T10:18:41.406Z,6188.00
2018-07-05T10:19:41.437Z,6108.00
2018-07-05T10:20:41.464Z,6132.00
2018-07-05T10:21:41.490Z,6132.00
2018-07-05T10:22:41.520Z,6148.00
2018-07-05T10:23:41.548Z,6212.00
2018-07-05T10:24:41.577Z,6084.00
2018-07-05T10:25:41.603Z,6032.00
2018-07-05T10:26:41.665Z,6008.00
2018-07-05T10:27:41.659Z,5708.00
2018-07-05T10:28:41.687Z,6100.00
2018-07-05T10:29:41.717Z,6180.00
2018-07-05T10:30:41.742Z,6208.00
2018-07-05T10:31:41.770Z,6152.00
2018-07-05T10:32:41.800Z,6144.00
2018-07-05T10:33:41.834Z,6080.00
2018-07-05T10:34:41.856Z,6068.00
2018-07-05T10:35:41.884Z,6044.00
2018-07-05T10:36:41.914Z,6068.00
2018-07-05T10:37:41.941Z,6052.00
2018-07-05T10:38:41.970Z,5940.00
2018-07-05T10:39:42.014Z,6032.00
2018-07-05T10:40:42.023Z,6172.00
2018-07-05T10:41:42.053Z,6116.00
2018-07-05T10:42:42.078Z,6112.00
2018-07-05T10:43:42.110Z,6268.00
2018-07-05T10:44:42.137Z,6116.00
2018-07-05T10:45:42.165Z,6076.00
2018-07-05T10:46:42.191Z,6060.00
2018-07-05T10:47:42.220Z,5768.00
2018-07-05T10:48:42.254Z,5800.00
2018-07-05T10:49:42.280Z,6112.00
2018-07-05T10:50:42.308Z,6212.00
2018-07-05T10:51:42.333Z,6300.00
2018-07-05T10:52:42.364Z,6332.00
2018-07-05T10:53:42.397Z,6332.00
2018-07-05T10:54:42.423Z,6388.00
2018-07-05T10:55:42.448Z,6556.00
2018-07-05T10:56:42.476Z,6776.00
2018-07-05T10:57:42.507Z,6792.00
2018-07-05T10:58:42.531Z,6728.00
2018-07-05T10:59:42.572Z,6760.00
2018-07-05T11:00:42.590Z,6716.00
2018-07-05T11:01:42.619Z,6636.00
2018-07-05T11:02:42.645Z,6548.00
2018-07-05T11:03:42.674Z,6276.00
2018-07-05T11:04:42.701Z,5940.00
2018-07-05T11:05:42.730Z,6028.00
2018-07-05T11:06:42.755Z,5964.00
2018-07-05T11:07:42.786Z,6136.00
2018-07-05T11:08:42.811Z,6084.00
2018-07-05T11:09:42.849Z,6208.00
2018-07-05T11:10:42.867Z,6232.00
2018-07-05T11:11:42.999Z,6232.00
2018-07-05T11:12:42.925Z,6180.00
2018-07-05T11:13:42.955Z,6200.00
2018-07-05T11:14:42.983Z,6144.00
2018-07-05T11:15:43.013Z,6032.00
2018-07-05T11:16:43.111Z,5904.00
2018-07-05T11:17:43.065Z,5868.00
2018-07-05T11:18:43.095Z,5868.00
2018-07-05T11:19:43.122Z,5892.00
2018-07-05T11:20:43.150Z,5836.00
2018-07-05T11:21:43.383Z,5608.00
2018-07-05T11:22:43.208Z,4512.00
2018-07-05T11:23:43.237Z,6004.00
2018-07-05T11:24:43.262Z,6068.00
2018-07-05T11:25:43.291Z,6000.00
2018-07-05T11:26:43.321Z,5856.00
2018-07-05T11:27:43.347Z,6052.00
2018-07-05T11:28:43.379Z,6068.00
2018-07-05T11:29:43.405Z,6052.00
2018-07-05T11:30:43.434Z,5856.00
2018-07-05T11:31:43.460Z,5568.00
2018-07-05T11:32:43.491Z,5324.00
2018-07-05T11:33:43.517Z,5524.00
2018-07-05T11:34:43.546Z,5628.00
2018-07-05T11:35:43.576Z,5788.00
2018-07-05T11:36:43.602Z,5716.00
2018-07-05T11:37:43.632Z,4372.00
2018-07-05T11:38:43.661Z,5544.00
2018-07-05T11:39:43.688Z,5736.00
2018-07-05T11:40:43.717Z,5700.00
2018-07-05T11:41:43.743Z,5292.00
2018-07-05T11:42:43.831Z,5036.00
2018-07-05T11:43:43.802Z,5836.00
2018-07-05T11:44:43.829Z,5924.00
2018-07-05T11:45:43.857Z,5944.00
2018-07-05T11:46:43.936Z,5996.00
2018-07-05T11:47:43.930Z,6064.00
2018-07-05T11:48:43.941Z,6348.00
2018-07-05T11:49:43.970Z,6180.00
2018-07-05T11:50:43.999Z,5968.00
2018-07-05T11:51:44.026Z,5924.00
2018-07-05T11:52:44.056Z,5836.00
2018-07-05T11:53:44.082Z,5748.00
2018-07-05T11:54:44.158Z,5576.00
2018-07-05T11:55:44.137Z,5416.00
2018-07-05T11:56:44.169Z,5304.00
2018-07-05T11:57:44.199Z,4544.00
2018-07-05T11:58:44.261Z,5284.00
2018-07-05T11:59:44.252Z,4540.00
2018-07-05T12:00:44.281Z,5620.00
2018-07-05T12:01:44.309Z,5572.00
2018-07-05T12:02:44.384Z,5768.00
2018-07-05T12:03:44.366Z,6116.00
2018-07-05T12:04:44.392Z,5816.00
2018-07-05T12:05:44.419Z,5812.00
2018-07-05T12:06:44.447Z,5604.00
2018-07-05T12:07:44.476Z,5472.00
2018-07-05T12:08:44.524Z,4028.00
2018-07-05T12:09:44.532Z,4984.00
2018-07-05T12:10:44.561Z,4068.00
2018-07-05T12:11:44.588Z,5512.00
2018-07-05T12:12:44.618Z,5864.00
2018-07-05T12:13:44.645Z,5928.00
2018-07-05T12:14:44.674Z,6060.00
2018-07-05T12:15:44.704Z,5988.00
2018-07-05T12:16:44.732Z,6064.00
2018-07-05T12:17:44.760Z,5916.00
2018-07-05T12:18:44.799Z,5660.00
2018-07-05T12:19:44.816Z,5632.00
2018-07-05T12:20:44.842Z,4876.00
2018-07-05T12:21:44.870Z,3924.00
2018-07-05T12:22:44.900Z,3860.00
2018-07-05T12:23:44.929Z,5008.00
2018-07-05T12:24:44.958Z,5320.00